Time;durP1;ratioP1;P1;durP2;ratioP2;P2;SDS_P1;SDS_P2;PMS_P1;PMS_P2;Temp;Humidity;BMP_temperature;BMP_pressure;BME280_temperature;BME280_humidity;BME280_pressure;Samples;Min_cycle;Max_cycle;Signal;HPM_P1;HPM_P2
2023/04/22 00:00:57;;;;;;;13.32;12.02;;;11.60;99.90;;;;;;5024655;28;20515;-71
2023/04/22 00:03:24;;;;;;;14.13;12.75;;;11.60;99.90;;;;;;4987869;28;20038;-69
2023/04/22 00:05:50;;;;;;;12.52;11.45;;;11.50;99.90;;;;;;5005896;28;20048;-69
2023/04/22 00:08:16;;;;;;;15.38;14.07;;;11.40;99.90;;;;;;5004975;28;20407;-69
2023/04/22 00:10:42;;;;;;;13.68;12.48;;;11.40;99.90;;;;;;5026844;28;20045;-69
2023/04/22 00:13:08;;;;;;;14.57;13.25;;;11.40;99.90;;;;;;5002905;28;20409;-70
2023/04/22 00:15:33;;;;;;;14.68;13.23;;;11.30;99.90;;;;;;5025495;28;20128;-69
2023/04/22 00:17:59;;;;;;;14.68;13.27;;;11.20;99.90;;;;;;5006681;28;20041;-69
2023/04/22 00:20:25;;;;;;;14.68;12.80;;;11.10;99.90;;;;;;5006754;28;20037;-69
2023/04/22 00:22:51;;;;;;;20.73;14.23;;;11.10;99.90;;;;;;5007044;28;20042;-69
2023/04/22 00:25:17;;;;;;;15.43;13.57;;;11.00;99.90;;;;;;5005035;28;20132;-69
2023/04/22 00:27:44;;;;;;;25.80;13.70;;;10.90;99.90;;;;;;5007848;28;20049;-69
2023/04/22 00:30:10;;;;;;;63.45;14.88;;;10.70;99.90;;;;;;5032484;28;20087;-69
2023/04/22 00:32:39;;;;;;;29.25;13.82;;;10.70;99.90;;;;;;5003248;28;20368;-69
2023/04/22 00:35:05;;;;;;;21.25;13.63;;;10.60;99.90;;;;;;5023350;28;20524;-69
2023/04/22 00:37:31;;;;;;;34.38;13.52;;;10.50;99.90;;;;;;5009437;28;20148;-69
2023/04/22 00:39:56;;;;;;;17.85;13.85;;;10.40;99.90;;;;;;5004865;28;20484;-69
2023/04/22 00:42:22;;;;;;;14.35;12.95;;;10.40;99.90;;;;;;4989525;28;20566;-69
2023/04/22 00:44:50;;;;;;;14.70;13.50;;;10.40;99.90;;;;;;5001167;28;20084;-69
2023/04/22 00:47:16;;;;;;;22.88;13.68;;;10.40;99.90;;;;;;5019909;28;20061;-69
2023/04/22 00:49:42;;;;;;;46.80;12.80;;;10.30;99.90;;;;;;4994776;28;20045;-69
2023/04/22 00:52:08;;;;;;;51.00;12.18;;;10.30;99.90;;;;;;4993503;28;20085;-69
2023/04/22 00:54:35;;;;;;;31.67;12.40;;;10.20;99.90;;;;;;4997172;28;20504;-69
2023/04/22 00:57:04;;;;;;;361.55;45.40;;;10.10;99.90;;;;;;5018260;28;20100;-69
2023/04/22 00:59:30;;;;;;;175.57;38.30;;;10.10;99.90;;;;;;5003864;28;20064;-69
2023/04/22 01:01:56;;;;;;;13.40;10.63;;;10.00;99.90;;;;;;5020554;28;20603;-69
2023/04/22 01:04:23;;;;;;;10.60;9.70;;;10.00;99.90;;;;;;5001593;28;20056;-69
2023/04/22 01:06:52;;;;;;;10.45;9.55;;;10.00;99.90;;;;;;5006434;28;20049;-69
2023/04/22 01:09:19;;;;;;;11.27;10.18;;;10.00;99.90;;;;;;5015991;28;20041;-69
2023/04/22 01:11:46;;;;;;;10.95;10.05;;;10.00;99.90;;;;;;5017651;28;20326;-69
2023/04/22 01:14:12;;;;;;;13.85;12.55;;;10.00;99.90;;;;;;5019425;28;20049;-69
2023/04/22 01:16:39;;;;;;;10.65;9.75;;;10.00;99.90;;;;;;5016756;28;20045;-69
2023/04/22 01:19:07;;;;;;;10.55;9.73;;;10.00;99.90;;;;;;5036673;28;20539;-69
2023/04/22 01:21:34;;;;;;;11.93;10.60;;;10.00;99.90;;;;;;5019619;28;20500;-69
2023/04/22 01:24:00;;;;;;;93.32;34.53;;;10.00;99.90;;;;;;5017675;28;20045;-69
2023/04/22 01:26:26;;;;;;;25.88;21.13;;;10.00;99.90;;;;;;5011242;28;20056;-69
2023/04/22 01:28:52;;;;;;;22.83;20.35;;;10.00;99.90;;;;;;5017582;28;20146;-69
2023/04/22 01:31:18;;;;;;;11.02;10.20;;;10.00;99.90;;;;;;5001128;28;20053;-69
2023/04/22 01:33:44;;;;;;;10.73;9.93;;;10.00;99.90;;;;;;5001321;28;20076;-70
2023/04/22 01:36:11;;;;;;;22.27;19.95;;;10.00;99.90;;;;;;4985865;28;20055;-69
2023/04/22 01:38:37;;;;;;;10.13;9.32;;;10.00;99.90;;;;;;4999828;28;20512;-69
2023/04/22 01:41:03;;;;;;;10.85;9.90;;;10.00;99.90;;;;;;5012063;28;20053;-69
2023/04/22 01:43:29;;;;;;;10.07;9.18;;;9.90;99.90;;;;;;4997956;28;20420;-69
2023/04/22 01:45:56;;;;;;;11.70;10.80;;;9.90;99.90;;;;;;5012098;28;20147;-69
2023/04/22 01:48:22;;;;;;;52.42;17.02;;;9.80;99.90;;;;;;5002400;28;20053;-69
2023/04/22 01:50:48;;;;;;;10.23;9.35;;;9.80;99.90;;;;;;5018493;28;20033;-69
2023/04/22 01:53:14;;;;;;;12.10;11.00;;;9.70;99.90;;;;;;4986697;28;20072;-70
2023/04/22 01:55:42;;;;;;;13.32;12.05;;;9.70;99.90;;;;;;4984264;28;20064;-69
2023/04/22 01:58:07;;;;;;;12.85;10.30;;;9.70;99.90;;;;;;5013964;28;20533;-69
2023/04/22 02:00:33;;;;;;;58.33;11.35;;;9.60;99.90;;;;;;5018334;28;20135;-69
2023/04/22 02:02:59;;;;;;;50.33;8.82;;;9.50;99.90;;;;;;5018496;28;20041;-69
2023/04/22 02:05:25;;;;;;;49.70;15.23;;;9.50;99.90;;;;;;5005602;28;20400;-69
2023/04/22 02:07:52;;;;;;;249.43;33.55;;;9.30;99.90;;;;;;4999673;28;20359;-69
2023/04/22 02:10:18;;;;;;;7.45;6.82;;;9.30;99.90;;;;;;5018189;28;20049;-69
2023/04/22 02:12:44;;;;;;;10.63;9.10;;;9.20;99.90;;;;;;5014804;28;20404;-69
2023/04/22 02:15:10;;;;;;;14.18;9.52;;;9.20;99.90;;;;;;4987527;28;20040;-69
2023/04/22 02:17:37;;;;;;;10.93;9.95;;;9.20;99.90;;;;;;5015819;28;20140;-69
2023/04/22 02:20:06;;;;;;;13.25;12.05;;;9.20;99.90;;;;;;4996137;28;20045;-70
2023/04/22 02:22:33;;;;;;;19.30;13.07;;;9.20;99.90;;;;;;5014822;28;20559;-69
2023/04/22 02:24:58;;;;;;;13.13;12.02;;;9.20;99.90;;;;;;5031518;28;20053;-69
2023/04/22 02:27:24;;;;;;;19.77;12.73;;;9.20;99.90;;;;;;4996487;28;20659;-69
2023/04/22 02:29:50;;;;;;;225.88;43.65;;;9.10;99.90;;;;;;5014152;28;20067;-69
2023/04/22 02:32:16;;;;;;;42.22;13.45;;;9.10;99.90;;;;;;4995308;28;20052;-69
2023/04/22 02:34:42;;;;;;;14.40;10.68;;;9.10;99.90;;;;;;5012912;28;20049;-69
2023/04/22 02:37:07;;;;;;;22.27;12.10;;;9.10;99.90;;;;;;5028256;28;20053;-69
2023/04/22 02:39:33;;;;;;;9.77;8.98;;;9.00;99.90;;;;;;4993676;28;20044;-69
2023/04/22 02:42:00;;;;;;;10.05;9.23;;;9.00;99.90;;;;;;5000916;28;20053;-70
2023/04/22 02:44:26;;;;;;;16.05;11.05;;;8.90;99.90;;;;;;4980515;28;20563;-69
2023/04/22 02:46:51;;;;;;;22.35;12.48;;;8.90;99.90;;;;;;5015068;28;20061;-69
2023/04/22 02:49:17;;;;;;;9.15;8.45;;;8.90;99.90;;;;;;5012157;28;20547;-69
2023/04/22 02:51:43;;;;;;;11.60;10.60;;;8.90;99.90;;;;;;4997317;28;20547;-69
2023/04/22 02:54:09;;;;;;;8.57;7.88;;;8.90;99.90;;;;;;5013779;28;20107;-69
2023/04/22 02:56:35;;;;;;;8.98;8.27;;;8.90;99.90;;;;;;5012048;28;20740;-69
2023/04/22 02:59:00;;;;;;;8.20;7.50;;;8.90;99.90;;;;;;5032220;28;20431;-69
2023/04/22 03:01:26;;;;;;;9.30;8.50;;;8.80;99.90;;;;;;4993556;28;20401;-69
2023/04/22 03:03:52;;;;;;;16.38;11.13;;;8.80;99.90;;;;;;5014046;28;20050;-69
2023/04/22 03:06:18;;;;;;;14.55;11.35;;;8.80;99.90;;;;;;4982088;28;20038;-69
2023/04/22 03:08:43;;;;;;;10.90;10.00;;;8.80;99.90;;;;;;5014798;28;20049;-69
2023/04/22 03:11:09;;;;;;;12.25;11.25;;;8.60;99.90;;;;;;5013376;28;20385;-69
2023/04/22 03:13:35;;;;;;;16.42;14.93;;;8.60;99.90;;;;;;5015397;28;20045;-69
2023/04/22 03:16:04;;;;;;;20.33;18.63;;;8.50;99.90;;;;;;5012274;28;20180;-69
2023/04/22 03:18:30;;;;;;;16.90;15.45;;;8.50;99.90;;;;;;4998321;28;20642;-70
2023/04/22 03:20:59;;;;;;;17.67;16.17;;;8.40;99.90;;;;;;5010572;28;20049;-69
2023/04/22 03:23:25;;;;;;;17.77;16.30;;;8.40;99.90;;;;;;5003441;28;20508;-69
2023/04/22 03:25:51;;;;;;;16.13;14.73;;;8.40;99.90;;;;;;5013592;28;20072;-69
2023/04/22 03:28:17;;;;;;;29.30;25.67;;;8.40;99.90;;;;;;4995110;28;20041;-69
2023/04/22 03:30:43;;;;;;;15.52;14.23;;;8.30;99.90;;;;;;5012552;28;20037;-69
2023/04/22 03:33:10;;;;;;;25.95;23.27;;;8.30;99.90;;;;;;5014712;28;20042;-69
2023/04/22 03:35:36;;;;;;;20.45;18.75;;;8.30;99.90;;;;;;5029752;28;20053;-69
2023/04/22 03:38:01;;;;;;;24.45;22.05;;;8.30;99.90;;;;;;5016347;28;20050;-69
2023/04/22 03:40:27;;;;;;;24.75;22.55;;;8.40;99.90;;;;;;4994101;28;20049;-69
2023/04/22 03:42:56;;;;;;;27.20;24.77;;;8.40;99.90;;;;;;4992935;28;20073;-70
2023/04/22 03:45:22;;;;;;;25.10;22.88;;;8.50;99.90;;;;;;5013729;28;20046;-69
2023/04/22 03:47:48;;;;;;;25.33;23.05;;;8.50;99.90;;;;;;4989565;28;20049;-69
2023/04/22 03:50:14;;;;;;;25.17;22.88;;;8.50;99.90;;;;;;5018384;28;20051;-69
2023/04/22 03:52:40;;;;;;;28.13;25.63;;;8.60;99.90;;;;;;4975267;28;20191;-69
2023/04/22 03:55:06;;;;;;;28.50;25.92;;;8.60;99.90;;;;;;5016845;28;20056;-69
2023/04/22 03:57:31;;;;;;;27.55;25.23;;;8.60;99.90;;;;;;5002254;28;20300;-69
2023/04/22 03:59:57;;;;;;;26.73;24.38;;;8.60;99.90;;;;;;4982619;28;20044;-69
2023/04/22 04:02:26;;;;;;;29.85;27.15;;;8.60;99.90;;;;;;4989253;28;20053;-69
2023/04/22 04:04:52;;;;;;;29.25;26.45;;;8.50;99.90;;;;;;5000396;28;20447;-69
2023/04/22 04:07:21;;;;;;;30.05;27.23;;;8.50;99.90;;;;;;5000678;28;20045;-69
2023/04/22 04:09:46;;;;;;;29.70;26.80;;;8.50;99.90;;;;;;5015103;28;20103;-69
2023/04/22 04:12:12;;;;;;;28.65;26.15;;;8.50;99.90;;;;;;4984464;28;20083;-69
2023/04/22 04:14:38;;;;;;;29.27;26.67;;;8.50;99.90;;;;;;4998727;28;20038;-69
2023/04/22 04:17:04;;;;;;;29.13;26.55;;;8.50;99.90;;;;;;4970320;28;20052;-69
2023/04/22 04:19:29;;;;;;;29.20;26.48;;;8.40;99.90;;;;;;5013685;28;20041;-69
2023/04/22 04:21:55;;;;;;;28.42;25.80;;;8.40;99.90;;;;;;5016018;28;20042;-69
2023/04/22 04:24:21;;;;;;;27.23;24.63;;;8.40;99.90;;;;;;5012989;28;20045;-70
2023/04/22 04:26:47;;;;;;;28.23;25.75;;;8.40;99.90;;;;;;4998900;28;20545;-70
2023/04/22 04:29:13;;;;;;;31.80;28.80;;;8.30;99.90;;;;;;4998777;28;20038;-70
2023/04/22 04:31:39;;;;;;;30.83;28.13;;;8.30;99.90;;;;;;5000235;28;20046;-70
2023/04/22 04:34:06;;;;;;;30.98;28.30;;;8.30;99.90;;;;;;5016409;28;20613;-69
2023/04/22 04:36:32;;;;;;;30.48;27.85;;;8.50;99.90;;;;;;5018960;28;20390;-70
2023/04/22 04:38:58;;;;;;;30.70;28.10;;;8.70;99.90;;;;;;4971315;28;20060;-70
2023/04/22 04:41:28;;;;;;;29.83;27.23;;;8.80;99.90;;;;;;5022777;28;20366;-70
2023/04/22 04:43:54;;;;;;;28.77;26.30;;;8.80;99.90;;;;;;4996600;28;20117;-70
2023/04/22 04:46:20;;;;;;;29.13;26.52;;;8.90;99.90;;;;;;4999933;28;20063;-69
2023/04/22 04:48:47;;;;;;;27.50;25.08;;;9.00;99.90;;;;;;5000214;28;20585;-70
2023/04/22 04:51:13;;;;;;;27.17;24.67;;;9.10;99.90;;;;;;4984257;28;20594;-69
2023/04/22 04:53:39;;;;;;;26.75;24.40;;;9.10;99.90;;;;;;5015043;28;20448;-70
2023/04/22 04:56:05;;;;;;;27.17;24.80;;;9.20;99.90;;;;;;5017751;28;20496;-70
2023/04/22 04:58:31;;;;;;;26.83;24.50;;;9.20;99.90;;;;;;4993609;28;20546;-70
2023/04/22 05:00:57;;;;;;;27.80;25.40;;;9.20;99.90;;;;;;5018422;28;20073;-69
2023/04/22 05:03:23;;;;;;;27.63;25.23;;;9.20;99.90;;;;;;4998068;28;20037;-70
2023/04/22 05:05:49;;;;;;;26.92;24.35;;;9.20;99.90;;;;;;5035604;28;20065;-70
2023/04/22 05:08:17;;;;;;;27.23;24.83;;;9.20;99.90;;;;;;5015777;28;20333;-70
2023/04/22 05:10:44;;;;;;;27.33;24.92;;;9.20;99.90;;;;;;4973149;28;20689;-70
2023/04/22 05:13:10;;;;;;;27.35;25.05;;;9.30;99.90;;;;;;5010411;28;20517;-70
2023/04/22 05:15:36;;;;;;;27.65;25.08;;;9.20;99.90;;;;;;5018053;28;20042;-69
2023/04/22 05:18:02;;;;;;;27.05;24.67;;;9.30;99.90;;;;;;5014839;28;20045;-70
2023/04/22 05:20:27;;;;;;;27.58;25.25;;;9.20;99.90;;;;;;5002040;28;20061;-70
2023/04/22 05:22:56;;;;;;;26.98;24.70;;;9.30;99.90;;;;;;5018050;28;20120;-70
2023/04/22 05:25:22;;;;;;;29.92;27.30;;;9.20;99.90;;;;;;5003117;28;20376;-70
2023/04/22 05:27:50;;;;;;;28.02;25.52;;;9.20;99.90;;;;;;5015757;28;20059;-70
2023/04/22 05:30:16;;;;;;;29.55;27.00;;;9.30;99.90;;;;;;5020306;28;20036;-70
2023/04/22 05:32:42;;;;;;;26.33;23.92;;;9.30;99.90;;;;;;4999106;28;20098;-70
2023/04/22 05:35:08;;;;;;;26.52;24.23;;;9.40;99.90;;;;;;5013329;28;20606;-70
2023/04/22 05:37:34;;;;;;;27.67;25.27;;;9.40;99.90;;;;;;5033034;28;20383;-69
2023/04/22 05:40:00;;;;;;;30.88;28.13;;;9.40;99.90;;;;;;5001896;28;20104;-70
2023/04/22 05:42:26;;;;;;;28.73;26.10;;;9.50;99.90;;;;;;5015065;28;20769;-70
2023/04/22 05:44:56;;;;;;;29.52;27.02;;;9.50;99.90;;;;;;5015104;28;20494;-71
2023/04/22 05:47:22;;;;;;;29.42;26.55;;;9.50;99.90;;;;;;4999684;28;20935;-71
2023/04/22 05:49:47;;;;;;;28.02;25.50;;;9.60;99.90;;;;;;4969820;28;20042;-71
2023/04/22 05:52:17;;;;;;;29.77;27.13;;;9.60;99.90;;;;;;5004657;28;20894;-71
2023/04/22 05:54:43;;;;;;;30.48;27.77;;;9.60;99.90;;;;;;4999114;28;20511;-71
2023/04/22 05:57:12;;;;;;;28.88;26.20;;;9.70;99.90;;;;;;5001679;28;20103;-71
2023/04/22 05:59:38;;;;;;;29.80;27.23;;;9.70;99.90;;;;;;5032419;28;20068;-71
2023/04/22 06:02:03;;;;;;;29.65;27.08;;;9.70;99.90;;;;;;4996159;28;20444;-71
2023/04/22 06:04:29;;;;;;;30.00;27.40;;;9.70;99.90;;;;;;5017743;28;20307;-70
2023/04/22 06:06:58;;;;;;;29.50;26.90;;;9.80;99.90;;;;;;5020131;28;20049;-71
2023/04/22 06:09:24;;;;;;;30.20;27.58;;;9.80;99.90;;;;;;5018342;28;20041;-71
2023/04/22 06:11:50;;;;;;;27.88;25.45;;;9.80;99.90;;;;;;5018829;28;20041;-71
2023/04/22 06:14:16;;;;;;;29.65;26.85;;;9.90;99.90;;;;;;5020657;28;20570;-71
2023/04/22 06:16:42;;;;;;;26.77;24.55;;;9.90;99.90;;;;;;5017264;28;20053;-71
2023/04/22 06:19:08;;;;;;;28.52;25.92;;;10.00;99.90;;;;;;5002801;28;20115;-71
2023/04/22 06:21:35;;;;;;;28.52;25.90;;;10.00;99.90;;;;;;4983818;28;20479;-71
2023/04/22 06:24:01;;;;;;;29.48;26.90;;;10.10;99.90;;;;;;5020500;28;20045;-70
2023/04/22 06:26:27;;;;;;;28.55;26.00;;;10.10;99.90;;;;;;5001675;28;20042;-71
2023/04/22 06:28:53;;;;;;;30.75;28.05;;;10.20;99.90;;;;;;5019481;28;20052;-71
2023/04/22 06:31:19;;;;;;;28.98;26.63;;;10.20;99.90;;;;;;5002496;28;20759;-71
2023/04/22 06:33:45;;;;;;;29.08;26.50;;;10.30;99.90;;;;;;5018414;28;20109;-71
2023/04/22 06:36:12;;;;;;;30.27;27.73;;;10.30;99.90;;;;;;5003599;28;20049;-71
2023/04/22 06:38:38;;;;;;;29.98;27.35;;;10.40;99.90;;;;;;5015730;28;20046;-71
2023/04/22 06:41:04;;;;;;;28.98;26.42;;;10.50;99.90;;;;;;5001418;28;20053;-71
2023/04/22 06:43:30;;;;;;;28.83;26.45;;;10.50;99.90;;;;;;5018447;28;20061;-71
2023/04/22 06:45:56;;;;;;;28.38;26.08;;;10.60;99.90;;;;;;5016073;28;20072;-71
2023/04/22 06:48:23;;;;;;;28.85;26.42;;;10.60;99.90;;;;;;5016660;28;20144;-71
2023/04/22 06:50:48;;;;;;;29.92;27.30;;;10.70;99.90;;;;;;4980120;28;20139;-71
2023/04/22 06:53:14;;;;;;;32.15;29.48;;;10.70;99.90;;;;;;5001940;28;20041;-71
2023/04/22 06:55:40;;;;;;;29.85;27.35;;;10.80;99.90;;;;;;5017093;28;20451;-71
2023/04/22 06:58:06;;;;;;;26.65;24.40;;;10.80;99.90;;;;;;5017063;28;20053;-71
2023/04/22 07:00:32;;;;;;;28.05;25.70;;;10.90;99.90;;;;;;5017210;28;20799;-71
2023/04/22 07:02:58;;;;;;;27.88;25.48;;;10.90;99.90;;;;;;5033696;28;20057;-71
2023/04/22 07:05:24;;;;;;;25.83;23.58;;;11.00;99.90;;;;;;5020719;28;20037;-71
2023/04/22 07:07:50;;;;;;;26.00;23.83;;;11.10;99.90;;;;;;4995002;28;20352;-70
2023/04/22 07:10:15;;;;;;;27.00;24.67;;;11.10;99.90;;;;;;4994916;28;20054;-71
2023/04/22 07:12:42;;;;;;;27.33;25.00;;;11.20;99.90;;;;;;5007654;28;20029;-71
2023/04/22 07:15:08;;;;;;;28.67;26.17;;;11.20;99.90;;;;;;5021138;28;20045;-71
2023/04/22 07:17:33;;;;;;;28.92;26.33;;;11.30;99.90;;;;;;5023030;28;20115;-71
2023/04/22 07:19:59;;;;;;;29.20;26.58;;;11.40;99.90;;;;;;5004541;28;20152;-71
2023/04/22 07:22:25;;;;;;;27.02;24.73;;;11.50;99.90;;;;;;5006334;28;20233;-71
2023/04/22 07:24:51;;;;;;;27.38;25.02;;;11.50;99.90;;;;;;5020200;28;20045;-71
2023/04/22 07:27:17;;;;;;;26.92;24.63;;;11.60;99.90;;;;;;5019274;28;20041;-71
2023/04/22 07:29:42;;;;;;;26.38;23.95;;;11.60;99.90;;;;;;5017790;28;20419;-71
2023/04/22 07:32:08;;;;;;;28.17;25.58;;;11.70;99.90;;;;;;5022054;28;20041;-71
2023/04/22 07:34:34;;;;;;;26.38;24.00;;;11.70;99.90;;;;;;5020964;28;20063;-71
2023/04/22 07:37:00;;;;;;;26.48;24.08;;;11.80;99.90;;;;;;5019394;28;20052;-71
2023/04/22 07:39:26;;;;;;;27.52;25.15;;;11.90;99.90;;;;;;5022317;28;20037;-71
2023/04/22 07:41:52;;;;;;;25.67;23.38;;;11.90;99.90;;;;;;5020671;28;20385;-71
2023/04/22 07:44:20;;;;;;;27.17;24.67;;;12.00;99.90;;;;;;5004649;28;20047;-71
2023/04/22 07:46:47;;;;;;;24.98;22.75;;;12.10;99.90;;;;;;5018922;28;20045;-71
2023/04/22 07:49:15;;;;;;;23.58;21.60;;;12.20;99.90;;;;;;5006256;28;20514;-71
2023/04/22 07:51:42;;;;;;;23.25;21.27;;;12.30;99.90;;;;;;5021378;28;20451;-71
2023/04/22 07:54:08;;;;;;;22.70;20.67;;;12.30;99.90;;;;;;5001931;28;20099;-71
2023/04/22 07:56:34;;;;;;;22.27;20.23;;;12.40;99.90;;;;;;5014440;28;20037;-71
2023/04/22 07:58:59;;;;;;;23.92;21.85;;;12.50;99.90;;;;;;5020575;28;20053;-71
2023/04/22 08:01:25;;;;;;;22.20;20.27;;;12.60;99.90;;;;;;5013716;28;20128;-71
2023/04/22 08:03:51;;;;;;;22.52;20.60;;;12.60;99.90;;;;;;4972323;28;20069;-71
2023/04/22 08:06:17;;;;;;;21.05;19.25;;;12.80;99.90;;;;;;5020087;28;20046;-71
2023/04/22 08:08:43;;;;;;;20.33;18.63;;;12.90;99.90;;;;;;5019122;28;20044;-71
2023/04/22 08:11:09;;;;;;;20.35;18.65;;;13.00;99.90;;;;;;5020562;28;20045;-71
2023/04/22 08:13:35;;;;;;;20.67;18.77;;;13.20;99.90;;;;;;5018585;28;20076;-71
2023/04/22 08:16:05;;;;;;;19.45;17.85;;;13.30;99.90;;;;;;4999426;28;20104;-71
2023/04/22 08:18:31;;;;;;;;;;;13.50;99.90;;;;;;5003616;28;20508;-71
2023/04/22 08:20:57;;;;;;;17.73;16.13;;;13.60;99.90;;;;;;5016507;28;20129;-71
2023/04/22 08:23:24;;;;;;;18.67;17.02;;;13.70;99.90;;;;;;5021079;28;20052;-72
2023/04/22 08:25:50;;;;;;;17.17;15.68;;;13.80;99.90;;;;;;5037478;28;20053;-71
2023/04/22 08:28:16;;;;;;;16.85;15.45;;;13.90;99.90;;;;;;5017449;28;20127;-72
2023/04/22 08:30:42;;;;;;;17.30;15.80;;;14.00;99.90;;;;;;5019907;28;20784;-72
2023/04/22 08:33:08;;;;;;;17.33;15.82;;;14.20;99.90;;;;;;4998823;28;20041;-72
2023/04/22 08:35:35;;;;;;;16.30;14.90;;;14.30;99.90;;;;;;5019203;28;20108;-72
2023/04/22 08:38:01;;;;;;;16.02;14.73;;;14.50;99.90;;;;;;4996584;28;20179;-72
2023/04/22 08:40:27;;;;;;;14.95;13.55;;;14.50;99.90;;;;;;5015434;28;20044;-71
2023/04/22 08:42:56;;;;;;;14.68;13.35;;;14.60;99.90;;;;;;4997120;28;20073;-71
2023/04/22 08:45:22;;;;;;;16.45;14.75;;;14.80;99.90;;;;;;4999597;28;20585;-72
2023/04/22 08:47:48;;;;;;;14.88;13.60;;;14.90;99.90;;;;;;5015510;28;20096;-72
2023/04/22 08:50:14;;;;;;;14.45;13.15;;;15.00;99.90;;;;;;4998358;28;20056;-71
2023/04/22 08:52:44;;;;;;;14.57;13.23;;;15.20;99.90;;;;;;5016452;28;20038;-72
2023/04/22 08:55:09;;;;;;;15.10;13.70;;;15.40;99.90;;;;;;5014237;28;20076;-71
2023/04/22 08:57:39;;;;;;;13.43;12.10;;;15.50;99.90;;;;;;5007598;28;20132;-72
2023/04/22 09:00:07;;;;;;;14.55;13.35;;;15.70;99.90;;;;;;5015078;28;20111;-72
2023/04/22 09:02:35;;;;;;;14.38;13.02;;;15.80;99.90;;;;;;5001867;28;20046;-72
2023/04/22 09:05:02;;;;;;;14.82;13.52;;;15.90;99.90;;;;;;5016655;28;20077;-72
2023/04/22 09:07:29;;;;;;;13.20;12.00;;;16.10;99.90;;;;;;5019460;28;20037;-72
2023/04/22 09:09:56;;;;;;;13.98;12.77;;;16.30;99.90;;;;;;5018710;28;20056;-72
2023/04/22 09:12:26;;;;;;;13.23;12.10;;;16.40;99.90;;;;;;5004832;28;20052;-72
2023/04/22 09:14:53;;;;;;;13.20;12.02;;;16.60;99.90;;;;;;5020557;28;20065;-72
2023/04/22 09:17:30;;;;;;;14.38;13.05;;;16.70;99.90;;;;;;5019911;28;20513;-72
2023/04/22 09:19:58;;;;;;;13.30;12.13;;;16.90;99.90;;;;;;5021395;28;20056;-72
2023/04/22 09:22:25;;;;;;;12.68;11.52;;;17.00;99.90;;;;;;5015848;28;20683;-72
2023/04/22 09:24:51;;;;;;;12.55;11.45;;;17.20;99.90;;;;;;5018861;28;20084;-71
2023/04/22 09:27:18;;;;;;;12.77;11.52;;;17.30;99.90;;;;;;5002065;28;20659;-72
2023/04/22 09:29:54;;;;;;;12.30;11.20;;;17.40;99.90;;;;;;5001139;28;20495;-71
2023/04/22 09:32:25;;;;;;;13.32;12.20;;;17.60;99.90;;;;;;4986928;28;20077;-72
2023/04/22 09:34:53;;;;;;;11.70;10.65;;;17.80;99.90;;;;;;5020227;28;20056;-71
2023/04/22 09:37:29;;;;;;;13.95;11.05;;;17.90;99.90;;;;;;4993468;28;20664;-72
2023/04/22 09:39:55;;;;;;;12.85;11.75;;;17.90;99.90;;;;;;5012015;28;20076;-72
2023/04/22 09:42:21;;;;;;;12.35;11.13;;;17.70;99.90;;;;;;5000766;28;20064;-71
2023/04/22 09:44:51;;;;;;;12.48;11.10;;;17.60;99.90;;;;;;4997874;28;20041;-72
2023/04/22 09:47:22;;;;;;;12.05;10.95;;;17.60;99.90;;;;;;5015662;28;20475;-71
2023/04/22 09:49:49;;;;;;;11.15;10.10;;;17.50;99.90;;;;;;5000859;28;20053;-71
2023/04/22 09:52:28;;;;;;;11.80;10.60;;;17.60;99.90;;;;;;5001379;28;20164;-71
2023/04/22 09:54:54;;;;;;;11.23;10.15;;;17.70;99.90;;;;;;5018347;28;20460;-71
2023/04/22 09:57:21;;;;;;;10.68;9.63;;;17.80;99.90;;;;;;5001404;28;20076;-71
2023/04/22 09:59:50;;;;;;;10.75;9.75;;;17.90;99.90;;;;;;5019413;28;20048;-71
2023/04/22 10:02:16;;;;;;;11.18;10.10;;;18.00;99.90;;;;;;5017717;28;20857;-71
2023/04/22 10:04:42;;;;;;;10.57;9.68;;;18.10;99.90;;;;;;5017834;28;20092;-71
2023/04/22 10:07:08;;;;;;;12.35;11.20;;;18.20;99.90;;;;;;5016057;28;20793;-71
2023/04/22 10:09:34;;;;;;;11.57;10.48;;;18.30;99.90;;;;;;5016697;28;20060;-72
2023/04/22 10:12:00;;;;;;;11.55;10.55;;;18.30;99.90;;;;;;4982647;28;20385;-71
2023/04/22 10:14:26;;;;;;;11.07;10.10;;;18.40;99.90;;;;;;5029223;28;20872;-72
2023/04/22 10:17:01;;;;;;;11.65;10.63;;;18.40;99.90;;;;;;4999955;28;20052;-71
2023/04/22 10:19:27;;;;;;;11.25;10.10;;;18.60;99.90;;;;;;5016284;28;20037;-71
2023/04/22 10:21:56;;;;;;;10.75;9.65;;;18.70;99.90;;;;;;4985708;28;20077;-72
2023/04/22 10:24:25;;;;;;;11.35;10.15;;;18.80;99.90;;;;;;4996516;28;20753;-74
2023/04/22 10:26:58;;;;;;;11.00;9.95;;;18.90;99.90;;;;;;5002528;28;20056;-73
2023/04/22 10:29:35;;;;;;;10.63;9.73;;;18.90;99.90;;;;;;5002078;28;20504;-73
2023/04/22 10:32:16;;;;;;;11.77;10.75;;;19.00;99.90;;;;;;5005967;28;20755;-73
2023/04/22 10:34:42;;;;;;;12.05;10.95;;;19.00;99.90;;;;;;5011979;28;20033;-74
2023/04/22 10:37:10;;;;;;;11.50;10.40;;;19.20;99.90;;;;;;4975705;28;20619;-72
2023/04/22 10:39:37;;;;;;;10.70;9.73;;;19.30;99.90;;;;;;5033392;28;20041;-72
2023/04/22 10:42:06;;;;;;;10.00;9.10;;;19.30;99.90;;;;;;5019737;28;20056;-72
2023/04/22 10:44:51;;;;;;;9.15;8.23;;;19.30;99.90;;;;;;5014715;28;20122;-71
2023/04/22 10:47:34;;;;;;;9.50;8.60;;;19.20;99.90;;;;;;4999397;28;20176;-73
2023/04/22 10:50:20;;;;;;;10.50;7.90;;;19.30;99.10;;;;;;5018378;28;21374;-71
2023/04/22 10:52:49;;;;;;;9.15;8.35;;;19.30;99.10;;;;;;5018313;28;20056;-71
2023/04/22 10:55:15;;;;;;;10.45;8.13;;;19.30;99.40;;;;;;5018938;28;20049;-71
2023/04/22 10:57:45;;;;;;;8.48;7.57;;;19.30;98.10;;;;;;5018773;28;20095;-70
2023/04/22 11:00:30;;;;;;;8.75;7.28;;;19.20;97.90;;;;;;5014765;28;20057;-70
2023/04/22 11:03:05;;;;;;;8.23;7.43;;;19.30;97.70;;;;;;5002643;28;20046;-70
2023/04/22 11:05:31;;;;;;;9.18;8.27;;;19.40;97.30;;;;;;5015633;28;20132;-70
2023/04/22 11:08:04;;;;;;;8.40;7.60;;;19.40;97.40;;;;;;5027785;28;20041;-70
2023/04/22 11:10:45;;;;;;;7.80;7.00;;;19.50;96.10;;;;;;5029783;28;20454;-72
2023/04/22 11:13:16;;;;;;;8.50;7.70;;;19.50;96.40;;;;;;5003295;28;20045;-70
2023/04/22 11:15:44;;;;;;;8.52;7.63;;;19.70;96.00;;;;;;5019782;28;20045;-71
2023/04/22 11:18:16;;;;;;;8.60;7.82;;;19.80;96.00;;;;;;5018323;28;20064;-71
2023/04/22 11:20:42;;;;;;;9.38;8.50;;;19.90;95.70;;;;;;5015731;28;20499;-71
2023/04/22 11:23:08;;;;;;;9.68;7.97;;;20.00;95.30;;;;;;4999202;28;21111;-71
2023/04/22 11:25:34;;;;;;;9.38;8.07;;;20.10;95.20;;;;;;5001842;28;20104;-71
2023/04/22 11:28:00;;;;;;;9.50;8.60;;;20.20;95.20;;;;;;5021718;28;20068;-71
2023/04/22 11:30:27;;;;;;;9.25;8.35;;;20.30;94.90;;;;;;5018233;28;20124;-71
2023/04/22 11:32:55;;;;;;;9.10;8.25;;;20.40;94.80;;;;;;5019941;28;20064;-71
2023/04/22 11:35:32;;;;;;;9.25;8.40;;;20.40;94.00;;;;;;5021763;28;20041;-71
2023/04/22 11:38:03;;;;;;;9.27;8.48;;;20.40;93.10;;;;;;5001499;28;20061;-71
2023/04/22 11:40:33;;;;;;;10.10;9.00;;;20.50;93.60;;;;;;5010016;28;20157;-71
2023/04/22 11:43:01;;;;;;;8.98;8.15;;;20.60;94.30;;;;;;5018215;28;20043;-72
2023/04/22 11:45:29;;;;;;;9.23;7.85;;;20.70;93.20;;;;;;4996681;28;20116;-71
2023/04/22 11:47:55;;;;;;;9.77;8.88;;;20.70;92.60;;;;;;5026637;28;21149;-71
2023/04/22 11:50:28;;;;;;;9.88;8.88;;;20.80;92.30;;;;;;5000836;28;20330;-72
2023/04/22 11:52:59;;;;;;;9.00;8.10;;;20.80;92.20;;;;;;5013529;28;20561;-71
2023/04/22 11:55:31;;;;;;;10.32;9.32;;;20.80;92.20;;;;;;5015801;28;20068;-71
2023/04/22 11:58:11;;;;;;;9.90;8.90;;;20.80;92.20;;;;;;5016598;28;20423;-72
2023/04/22 12:00:45;;;;;;;9.30;8.50;;;20.70;91.20;;;;;;5017741;28;20084;-72
2023/04/22 12:03:19;;;;;;;9.60;8.70;;;20.50;92.40;;;;;;5017085;28;20038;-71
2023/04/22 12:05:54;;;;;;;9.93;8.93;;;20.50;93.20;;;;;;5019589;28;20045;-71
2023/04/22 12:08:29;;;;;;;9.18;8.27;;;20.40;92.60;;;;;;5014725;28;20642;-71
2023/04/22 12:11:00;;;;;;;9.52;8.50;;;20.40;93.30;;;;;;5018555;28;20068;-70
2023/04/22 12:13:41;;;;;;;10.18;9.20;;;20.30;93.00;;;;;;5003231;28;20041;-71
2023/04/22 12:16:11;;;;;;;10.65;9.70;;;20.30;93.40;;;;;;4993314;28;20447;-71
2023/04/22 12:18:54;;;;;;;10.07;8.77;;;20.20;92.60;;;;;;5020429;28;20903;-71
2023/04/22 12:21:23;;;;;;;10.25;9.25;;;20.30;93.20;;;;;;4991291;28;20053;-70
2023/04/22 12:23:57;;;;;;;11.18;9.85;;;20.20;94.00;;;;;;4992738;28;20073;-70
2023/04/22 12:26:27;;;;;;;10.23;9.25;;;20.20;93.50;;;;;;4980592;28;20492;-71
2023/04/22 12:28:59;;;;;;;11.00;9.95;;;20.30;94.00;;;;;;5000185;28;20100;-70
2023/04/22 12:31:26;;;;;;;10.75;9.57;;;20.50;94.30;;;;;;4992308;28;20161;-69
2023/04/22 12:33:52;;;;;;;11.15;10.15;;;20.70;93.80;;;;;;5003413;28;20603;-71